DLA8LL LIPZ-EDDM
Flight info
| Callsign | DLA8LL |
|---|---|
| Flight time | 0h 43m |
| Altitude | 32000 |
| Route | ROKIB DCT SOTOV/N0391F240 T101 ANDEC/N0385F230 T101 BETOS BETOS1B |
| Aircraft | E195/M-SDE3GILORVW/S |
Departure
| Time | 2026-05-05 21:28 |
|---|---|
| Airport | Venice Marco Polo Airport (LIPZ) |
Arrival
| Time | 2026-05-05 22:11 |
|---|---|
| Airport | Munich Airport (EDDM) |
| Time | Latitude | Longitude | Altitude | Speed | Heading |
|---|---|---|---|---|---|
| 2026-05-05 21:18 | 45.50489 | 12.34215 | 16 ft | 0 kts | 269° |
| 2026-05-05 21:19 | 45.50490 | 12.34248 | 17 ft | 4 kts | 268° |
| 2026-05-05 21:19 | 45.50491 | 12.34280 | 19 ft | 2 kts | 268° |
| 2026-05-05 21:20 | 45.50495 | 12.34315 | 18 ft | 4 kts | 237° |
| 2026-05-05 21:20 | 45.50513 | 12.34338 | 17 ft | 4 kts | 185° |
| 2026-05-05 21:20 | 45.50506 | 12.34340 | 17 ft | 4 kts | 178° |
| 2026-05-05 21:20 | 45.50479 | 12.34342 | 16 ft | 3 kts | 177° |
| 2026-05-05 21:21 | 45.50475 | 12.34342 | 17 ft | 0 kts | 177° |
| 2026-05-05 21:23 | 45.50471 | 12.34342 | 17 ft | 3 kts | 177° |
| 2026-05-05 21:23 | 45.50400 | 12.34347 | 18 ft | 13 kts | 177° |
| 2026-05-05 21:23 | 45.50299 | 12.34328 | 18 ft | 18 kts | 198° |
| 2026-05-05 21:24 | 45.50183 | 12.34211 | 16 ft | 22 kts | 221° |
| 2026-05-05 21:24 | 45.50060 | 12.34052 | 11 ft | 26 kts | 222° |
| 2026-05-05 21:24 | 45.49970 | 12.33937 | 14 ft | 26 kts | 222° |
| 2026-05-05 21:24 | 45.49834 | 12.33761 | 13 ft | 24 kts | 221° |
| 2026-05-05 21:25 | 45.49728 | 12.33646 | 15 ft | 19 kts | 207° |
| 2026-05-05 21:25 | 45.49622 | 12.33536 | 15 ft | 12 kts | 220° |
| 2026-05-05 21:25 | 45.49559 | 12.33524 | 16 ft | 11 kts | 139° |
| 2026-05-05 21:25 | 45.49482 | 12.33646 | 15 ft | 14 kts | 131° |
| 2026-05-05 21:26 | 45.49419 | 12.33748 | 12 ft | 4 kts | 131° |
| 2026-05-05 21:26 | 45.49411 | 12.33777 | 12 ft | 4 kts | 88° |
| 2026-05-05 21:26 | 45.49423 | 12.33795 | 12 ft | 0 kts | 39° |
| 2026-05-05 21:27 | 45.49434 | 12.33808 | 12 ft | 12 kts | 39° |
| 2026-05-05 21:27 | 45.49689 | 12.34132 | 7 ft | 85 kts | 42° |
| 2026-05-05 21:27 | 45.50290 | 12.34904 | 19 ft | 145 kts | 43° |
| 2026-05-05 21:27 | 45.51116 | 12.35960 | 452 ft | 168 kts | 39° |
| 2026-05-05 21:28 | 45.52035 | 12.37053 | 1184 ft | 177 kts | 40° |
| 2026-05-05 21:28 | 45.52904 | 12.38197 | 1836 ft | 165 kts | 49° |
| 2026-05-05 21:28 | 45.53574 | 12.39556 | 1977 ft | 171 kts | 71° |
| 2026-05-05 21:28 | 45.53662 | 12.41181 | 2219 ft | 168 kts | 103° |
| 2026-05-05 21:29 | 45.53443 | 12.42893 | 2753 ft | 183 kts | 100° |
| 2026-05-05 21:29 | 45.53258 | 12.44770 | 3236 ft | 199 kts | 99° |
| 2026-05-05 21:29 | 45.53051 | 12.46805 | 3777 ft | 215 kts | 99° |
| 2026-05-05 21:29 | 45.52823 | 12.48958 | 4510 ft | 223 kts | 99° |
| 2026-05-05 21:30 | 45.52534 | 12.51155 | 5277 ft | 227 kts | 111° |
| 2026-05-05 21:30 | 45.51621 | 12.52926 | 6019 ft | 223 kts | 152° |
| 2026-05-05 21:30 | 45.50173 | 12.53413 | 6769 ft | 213 kts | 191° |
| 2026-05-05 21:30 | 45.48809 | 12.52806 | 7524 ft | 208 kts | 207° |
| 2026-05-05 21:31 | 45.47534 | 12.51851 | 8225 ft | 209 kts | 217° |
| 2026-05-05 21:31 | 45.46538 | 12.50248 | 8606 ft | 225 kts | 242° |
| 2026-05-05 21:31 | 45.46031 | 12.48077 | 9133 ft | 239 kts | 260° |
| 2026-05-05 21:31 | 45.46101 | 12.45652 | 9665 ft | 255 kts | 281° |
| 2026-05-05 21:32 | 45.46635 | 12.43163 | 10165 ft | 271 kts | 285° |
| 2026-05-05 21:32 | 45.47250 | 12.40543 | 10584 ft | 286 kts | 285° |
| 2026-05-05 21:32 | 45.47898 | 12.37798 | 11051 ft | 299 kts | 285° |
| 2026-05-05 21:32 | 45.48569 | 12.34999 | 11654 ft | 306 kts | 285° |
| 2026-05-05 21:33 | 45.49264 | 12.32120 | 12394 ft | 309 kts | 286° |
| 2026-05-05 21:33 | 45.49981 | 12.29216 | 13147 ft | 312 kts | 286° |
| 2026-05-05 21:33 | 45.50727 | 12.26290 | 13888 ft | 316 kts | 287° |
| 2026-05-05 21:33 | 45.51500 | 12.23346 | 14565 ft | 318 kts | 287° |
| 2026-05-05 21:34 | 45.52303 | 12.20388 | 15254 ft | 321 kts | 287° |
| 2026-05-05 21:34 | 45.53057 | 12.17390 | 15937 ft | 321 kts | 283° |
| 2026-05-05 21:34 | 45.53690 | 12.14320 | 16590 ft | 325 kts | 282° |
| 2026-05-05 21:34 | 45.54353 | 12.11226 | 17268 ft | 328 kts | 282° |
| 2026-05-05 21:35 | 45.55008 | 12.08142 | 17921 ft | 331 kts | 282° |
| 2026-05-05 21:35 | 45.55684 | 12.04990 | 18558 ft | 334 kts | 282° |
| 2026-05-05 21:35 | 45.56368 | 12.01807 | 19167 ft | 337 kts | 282° |
| 2026-05-05 21:35 | 45.57058 | 11.98596 | 19813 ft | 340 kts | 282° |
| 2026-05-05 21:36 | 45.57946 | 11.95430 | 20417 ft | 351 kts | 295° |
| 2026-05-05 21:36 | 45.59595 | 11.92772 | 21007 ft | 369 kts | 316° |
| 2026-05-05 21:36 | 45.61842 | 11.90879 | 21561 ft | 380 kts | 327° |
| 2026-05-05 21:36 | 45.64241 | 11.89243 | 22092 ft | 385 kts | 329° |
| 2026-05-05 21:37 | 45.66675 | 11.87606 | 22592 ft | 388 kts | 329° |
| 2026-05-05 21:37 | 45.69105 | 11.85987 | 23086 ft | 392 kts | 329° |
| 2026-05-05 21:37 | 45.71594 | 11.84349 | 23608 ft | 396 kts | 329° |
| 2026-05-05 21:37 | 45.74103 | 11.82702 | 24034 ft | 399 kts | 328° |
| 2026-05-05 21:38 | 45.76611 | 11.80967 | 24484 ft | 401 kts | 327° |
| 2026-05-05 21:38 | 45.79125 | 11.79221 | 24980 ft | 402 kts | 327° |
| 2026-05-05 21:38 | 45.81649 | 11.77470 | 25491 ft | 404 kts | 327° |
| 2026-05-05 21:38 | 45.84184 | 11.75706 | 25989 ft | 406 kts | 327° |
| 2026-05-05 21:39 | 45.86727 | 11.73937 | 26484 ft | 407 kts | 327° |
| 2026-05-05 21:39 | 45.89252 | 11.72193 | 26917 ft | 409 kts | 327° |
| 2026-05-05 21:39 | 45.91821 | 11.70423 | 27396 ft | 410 kts | 327° |
| 2026-05-05 21:39 | 45.94546 | 11.69039 | 27741 ft | 426 kts | 341° |
| 2026-05-05 21:40 | 45.97496 | 11.68395 | 28099 ft | 432 kts | 346° |
| 2026-05-05 21:40 | 46.00491 | 11.67900 | 28561 ft | 434 kts | 347° |
| 2026-05-05 21:40 | 46.03500 | 11.67403 | 28915 ft | 437 kts | 346° |
| 2026-05-05 21:40 | 46.06528 | 11.66900 | 29350 ft | 438 kts | 346° |
| 2026-05-05 21:41 | 46.09561 | 11.66375 | 29733 ft | 440 kts | 346° |
| 2026-05-05 21:41 | 46.12568 | 11.65845 | 30089 ft | 443 kts | 346° |
| 2026-05-05 21:41 | 46.15633 | 11.65302 | 30353 ft | 446 kts | 346° |
| 2026-05-05 21:41 | 46.18713 | 11.64758 | 30659 ft | 448 kts | 345° |
| 2026-05-05 21:42 | 46.21809 | 11.64212 | 30986 ft | 449 kts | 345° |
| 2026-05-05 21:42 | 46.24923 | 11.63662 | 31297 ft | 451 kts | 345° |
| 2026-05-05 21:42 | 46.28046 | 11.63111 | 31585 ft | 454 kts | 345° |
| 2026-05-05 21:42 | 46.31188 | 11.62555 | 31853 ft | 456 kts | 345° |
| 2026-05-05 21:43 | 46.34330 | 11.61998 | 32109 ft | 457 kts | 345° |
| 2026-05-05 21:43 | 46.37470 | 11.61435 | 32119 ft | 464 kts | 345° |
| 2026-05-05 21:43 | 46.43981 | 11.60291 | 32017 ft | 477 kts | 345° |
| 2026-05-05 21:44 | 46.50594 | 11.59113 | 31978 ft | 480 kts | 345° |
| 2026-05-05 21:44 | 46.57245 | 11.57916 | 31966 ft | 482 kts | 345° |
| 2026-05-05 21:45 | 46.63857 | 11.56749 | 31958 ft | 483 kts | 345° |
| 2026-05-05 21:45 | 46.70522 | 11.55552 | 31981 ft | 482 kts | 346° |
| 2026-05-05 21:46 | 46.77178 | 11.54360 | 31962 ft | 481 kts | 346° |
| 2026-05-05 21:46 | 46.83822 | 11.53169 | 31951 ft | 482 kts | 346° |
| 2026-05-05 21:47 | 46.90432 | 11.51969 | 31949 ft | 482 kts | 346° |
| 2026-05-05 21:47 | 46.97110 | 11.50796 | 31950 ft | 484 kts | 346° |
| 2026-05-05 21:48 | 47.03793 | 11.49574 | 31923 ft | 482 kts | 346° |
| 2026-05-05 21:48 | 47.07098 | 11.48926 | 31537 ft | 475 kts | 347° |
| 2026-05-05 21:48 | 47.10333 | 11.48401 | 31200 ft | 460 kts | 347° |
| 2026-05-05 21:49 | 47.13493 | 11.47830 | 30486 ft | 455 kts | 347° |
| 2026-05-05 21:49 | 47.16573 | 11.47257 | 29848 ft | 450 kts | 347° |
| 2026-05-05 21:49 | 47.19654 | 11.46687 | 29264 ft | 442 kts | 347° |
| 2026-05-05 21:49 | 47.22682 | 11.46136 | 28651 ft | 434 kts | 347° |
| 2026-05-05 21:50 | 47.25656 | 11.45589 | 28099 ft | 429 kts | 348° |
| 2026-05-05 21:50 | 47.28622 | 11.45041 | 27552 ft | 430 kts | 348° |
| 2026-05-05 21:50 | 47.31601 | 11.44484 | 26958 ft | 433 kts | 348° |
| 2026-05-05 21:50 | 47.34590 | 11.43946 | 26366 ft | 432 kts | 349° |
| 2026-05-05 21:51 | 47.37560 | 11.43432 | 25819 ft | 428 kts | 348° |
| 2026-05-05 21:51 | 47.40465 | 11.42869 | 25236 ft | 426 kts | 348° |
| 2026-05-05 21:51 | 47.43392 | 11.42301 | 24671 ft | 423 kts | 348° |
| 2026-05-05 21:51 | 47.46293 | 11.41764 | 24088 ft | 419 kts | 348° |
| 2026-05-05 21:52 | 47.52018 | 11.40697 | 22971 ft | 410 kts | 348° |
| 2026-05-05 21:52 | 47.54824 | 11.40169 | 22472 ft | 404 kts | 348° |
| 2026-05-05 21:52 | 47.57597 | 11.39649 | 21933 ft | 400 kts | 348° |
| 2026-05-05 21:53 | 47.60348 | 11.39135 | 21406 ft | 396 kts | 348° |
| 2026-05-05 21:53 | 47.63067 | 11.38628 | 20881 ft | 392 kts | 348° |
| 2026-05-05 21:53 | 47.65724 | 11.38129 | 20375 ft | 389 kts | 348° |
| 2026-05-05 21:53 | 47.68397 | 11.37616 | 19840 ft | 385 kts | 349° |
| 2026-05-05 21:54 | 47.71042 | 11.37113 | 19348 ft | 381 kts | 349° |
| 2026-05-05 21:54 | 47.73656 | 11.36616 | 18847 ft | 377 kts | 349° |
| 2026-05-05 21:54 | 47.76242 | 11.36125 | 18350 ft | 373 kts | 349° |
| 2026-05-05 21:54 | 47.78806 | 11.35637 | 17837 ft | 368 kts | 349° |
| 2026-05-05 21:55 | 47.81327 | 11.35158 | 17393 ft | 363 kts | 349° |
| 2026-05-05 21:55 | 47.83828 | 11.34680 | 16903 ft | 361 kts | 349° |
| 2026-05-05 21:55 | 47.86314 | 11.34205 | 16431 ft | 359 kts | 349° |
| 2026-05-05 21:55 | 47.88751 | 11.33787 | 15963 ft | 358 kts | 354° |
| 2026-05-05 21:56 | 47.91255 | 11.33819 | 15453 ft | 359 kts | 0° |
| 2026-05-05 21:56 | 47.93732 | 11.34037 | 14988 ft | 356 kts | 1° |
| 2026-05-05 21:56 | 47.96196 | 11.34247 | 14518 ft | 353 kts | 0° |
| 2026-05-05 21:56 | 47.98635 | 11.34444 | 14061 ft | 349 kts | 2° |
| 2026-05-05 21:57 | 48.00977 | 11.35335 | 13608 ft | 348 kts | 24° |
| 2026-05-05 21:57 | 48.02887 | 11.37469 | 13213 ft | 341 kts | 47° |
| 2026-05-05 21:57 | 48.04304 | 11.40258 | 12828 ft | 333 kts | 54° |
| 2026-05-05 21:57 | 48.05623 | 11.43010 | 12437 ft | 327 kts | 54° |
| 2026-05-05 21:58 | 48.06940 | 11.45742 | 12048 ft | 321 kts | 54° |
| 2026-05-05 21:58 | 48.08237 | 11.48439 | 11668 ft | 317 kts | 54° |
| 2026-05-05 21:58 | 48.09517 | 11.51121 | 11289 ft | 317 kts | 54° |
| 2026-05-05 21:58 | 48.10793 | 11.53803 | 10915 ft | 317 kts | 54° |
| 2026-05-05 21:59 | 48.12072 | 11.56503 | 10543 ft | 318 kts | 54° |
| 2026-05-05 21:59 | 48.13348 | 11.59210 | 10174 ft | 318 kts | 54° |
| 2026-05-05 21:59 | 48.14611 | 11.61908 | 9861 ft | 313 kts | 54° |
| 2026-05-05 21:59 | 48.15846 | 11.64569 | 9601 ft | 308 kts | 54° |
| 2026-05-05 22:00 | 48.17048 | 11.67170 | 9330 ft | 300 kts | 54° |
| 2026-05-05 22:00 | 48.18206 | 11.69677 | 9070 ft | 293 kts | 54° |
| 2026-05-05 22:00 | 48.19358 | 11.72166 | 8811 ft | 287 kts | 54° |
| 2026-05-05 22:00 | 48.20485 | 11.74607 | 8547 ft | 282 kts | 54° |
| 2026-05-05 22:01 | 48.21581 | 11.77014 | 8297 ft | 277 kts | 58° |
| 2026-05-05 22:01 | 48.22447 | 11.79568 | 8038 ft | 273 kts | 64° |
| 2026-05-05 22:01 | 48.23251 | 11.82124 | 7787 ft | 269 kts | 64° |
| 2026-05-05 22:01 | 48.24045 | 11.84638 | 7526 ft | 265 kts | 64° |
| 2026-05-05 22:02 | 48.24830 | 11.87121 | 7286 ft | 262 kts | 64° |
| 2026-05-05 22:02 | 48.25588 | 11.89531 | 7107 ft | 255 kts | 64° |
| 2026-05-05 22:02 | 48.26337 | 11.91907 | 6988 ft | 249 kts | 64° |
| 2026-05-05 22:02 | 48.27072 | 11.94248 | 6861 ft | 247 kts | 64° |
| 2026-05-05 22:03 | 48.27808 | 11.96587 | 6740 ft | 248 kts | 64° |
| 2026-05-05 22:03 | 48.28545 | 11.98932 | 6622 ft | 249 kts | 64° |
| 2026-05-05 22:03 | 48.29283 | 12.01281 | 6501 ft | 248 kts | 64° |
| 2026-05-05 22:03 | 48.30019 | 12.03629 | 6382 ft | 248 kts | 64° |
| 2026-05-05 22:04 | 48.30751 | 12.05969 | 6258 ft | 247 kts | 64° |
| 2026-05-05 22:04 | 48.31471 | 12.08273 | 6131 ft | 246 kts | 64° |
| 2026-05-05 22:04 | 48.32194 | 12.10603 | 6001 ft | 246 kts | 64° |
| 2026-05-05 22:04 | 48.32914 | 12.12936 | 5869 ft | 246 kts | 64° |
| 2026-05-05 22:05 | 48.33631 | 12.15272 | 5647 ft | 246 kts | 62° |
| 2026-05-05 22:05 | 48.34669 | 12.17245 | 5377 ft | 237 kts | 32° |
| 2026-05-05 22:05 | 48.36150 | 12.18028 | 5113 ft | 223 kts | 356° |
| 2026-05-05 22:05 | 48.37577 | 12.17414 | 4862 ft | 211 kts | 320° |
| 2026-05-05 22:06 | 48.38404 | 12.15717 | 4613 ft | 201 kts | 284° |
| 2026-05-05 22:06 | 48.38704 | 12.13704 | 4368 ft | 200 kts | 284° |
| 2026-05-05 22:06 | 48.38964 | 12.11671 | 4115 ft | 198 kts | 268° |
| 2026-05-05 22:06 | 48.38738 | 12.09665 | 4032 ft | 188 kts | 259° |
| 2026-05-05 22:07 | 48.38565 | 12.07721 | 4034 ft | 190 kts | 266° |
| 2026-05-05 22:07 | 48.38473 | 12.05718 | 4054 ft | 194 kts | 264° |
| 2026-05-05 22:07 | 48.38307 | 12.03704 | 4089 ft | 193 kts | 263° |
| 2026-05-05 22:07 | 48.38154 | 12.01759 | 4130 ft | 178 kts | 264° |
| 2026-05-05 22:08 | 48.38029 | 11.99933 | 3810 ft | 172 kts | 264° |
| 2026-05-05 22:08 | 48.37898 | 11.98201 | 3583 ft | 161 kts | 263° |
| 2026-05-05 22:08 | 48.37779 | 11.96636 | 3390 ft | 144 kts | 264° |
| 2026-05-05 22:08 | 48.37673 | 11.95196 | 3194 ft | 133 kts | 264° |
| 2026-05-05 22:09 | 48.37572 | 11.93858 | 3021 ft | 126 kts | 264° |
| 2026-05-05 22:09 | 48.37474 | 11.92547 | 2869 ft | 127 kts | 264° |
| 2026-05-05 22:09 | 48.37374 | 11.91220 | 2709 ft | 129 kts | 264° |
| 2026-05-05 22:09 | 48.37274 | 11.89870 | 2530 ft | 131 kts | 263° |
| 2026-05-05 22:10 | 48.37172 | 11.88489 | 2346 ft | 134 kts | 263° |
| 2026-05-05 22:10 | 48.37062 | 11.87083 | 2166 ft | 138 kts | 263° |
| 2026-05-05 22:10 | 48.36959 | 11.85635 | 2059 ft | 140 kts | 262° |
| 2026-05-05 22:10 | 48.36836 | 11.84190 | 1855 ft | 142 kts | 262° |
| 2026-05-05 22:11 | 48.36729 | 11.82716 | 1632 ft | 141 kts | 263° |
| 2026-05-05 22:11 | 48.36622 | 11.81294 | 1481 ft | 128 kts | 263° |
| 2026-05-05 22:11 | 48.36542 | 11.80245 | 1484 ft | 70 kts | 263° |
| 2026-05-05 22:11 | 48.36501 | 11.79845 | 1482 ft | 26 kts | 250° |
| 2026-05-05 22:12 | 48.36407 | 11.79615 | 1478 ft | 26 kts | 233° |
| 2026-05-05 22:12 | 48.36299 | 11.79397 | 1484 ft | 26 kts | 234° |
| 2026-05-05 22:12 | 48.36211 | 11.79295 | 1484 ft | 11 kts | 181° |
| 2026-05-05 22:12 | 48.36129 | 11.79309 | 1474 ft | 13 kts | 173° |
| 2026-05-05 22:13 | 48.36034 | 11.79326 | 1481 ft | 15 kts | 173° |
| 2026-05-05 22:13 | 48.35930 | 11.79349 | 1478 ft | 16 kts | 159° |
| 2026-05-05 22:13 | 48.35819 | 11.79391 | 1482 ft | 17 kts | 174° |
| 2026-05-05 22:13 | 48.35694 | 11.79412 | 1481 ft | 19 kts | 173° |
| 2026-05-05 22:14 | 48.35559 | 11.79436 | 1477 ft | 20 kts | 173° |
| 2026-05-05 22:14 | 48.35414 | 11.79460 | 1484 ft | 22 kts | 173° |
| 2026-05-05 22:14 | 48.35261 | 11.79485 | 1477 ft | 23 kts | 172° |
| 2026-05-05 22:14 | 48.35158 | 11.79505 | 1482 ft | 11 kts | 172° |
| 2026-05-05 22:15 | 48.35122 | 11.79594 | 1482 ft | 12 kts | 85° |
| 2026-05-05 22:15 | 48.35133 | 11.79722 | 1484 ft | 13 kts | 83° |
| 2026-05-05 22:15 | 48.35144 | 11.79866 | 1476 ft | 15 kts | 83° |
| 2026-05-05 22:15 | 48.35156 | 11.80023 | 1473 ft | 16 kts | 83° |
| 2026-05-05 22:16 | 48.35169 | 11.80193 | 1484 ft | 17 kts | 83° |
| 2026-05-05 22:16 | 48.35183 | 11.80373 | 1484 ft | 18 kts | 83° |
| 2026-05-05 22:16 | 48.35196 | 11.80527 | 1480 ft | 9 kts | 82° |
| 2026-05-05 22:16 | 48.35205 | 11.80602 | 1476 ft | 5 kts | 53° |
| 2026-05-05 22:17 | 48.35239 | 11.80600 | 1484 ft | 5 kts | 352° |
| 2026-05-05 22:17 | 48.35255 | 11.80597 | 1483 ft | 1 kts | 353° |